Time;durP1;ratioP1;P1;durP2;ratioP2;P2;SDS_P1;SDS_P2;PMS_P1;PMS_P2;Temp;Humidity;BMP_temperature;BMP_pressure;BME280_temperature;BME280_humidity;BME280_pressure;Samples;Min_cycle;Max_cycle;Signal;HPM_P1;HPM_P2
2022/09/25 00:00:41;;;;;;;2.28;1.00;;;9.60;99.90;;;;;;5037570;28;20119;-70
2022/09/25 00:03:07;;;;;;;3.95;1.20;;;9.60;99.90;;;;;;5037554;28;20037;-70
2022/09/25 00:05:35;;;;;;;3.47;1.10;;;9.50;99.90;;;;;;5037916;28;20494;-70
2022/09/25 00:08:02;;;;;;;3.50;1.00;;;9.50;99.90;;;;;;5037159;28;20067;-70
2022/09/25 00:10:28;;;;;;;3.88;1.10;;;9.50;99.90;;;;;;5053420;28;20052;-70
2022/09/25 00:12:54;;;;;;;1.88;0.82;;;9.50;99.90;;;;;;5036296;28;20555;-70
2022/09/25 00:15:20;;;;;;;3.10;1.40;;;9.50;99.90;;;;;;5054338;28;20067;-70
2022/09/25 00:17:46;;;;;;;2.33;1.15;;;9.50;99.90;;;;;;5054435;28;20410;-70
2022/09/25 00:20:13;;;;;;;3.30;1.00;;;9.50;99.90;;;;;;5053518;28;20099;-70
2022/09/25 00:22:39;;;;;;;2.20;0.90;;;9.40;99.90;;;;;;5054668;28;20365;-70
2022/09/25 00:25:05;;;;;;;2.08;1.00;;;9.40;99.90;;;;;;5071195;28;20036;-71
2022/09/25 00:27:31;;;;;;;1.60;0.90;;;9.40;99.90;;;;;;5053504;28;20045;-70
2022/09/25 00:29:58;;;;;;;1.00;0.80;;;9.40;99.90;;;;;;5036614;28;20116;-70
2022/09/25 00:32:24;;;;;;;1.08;0.60;;;9.40;99.90;;;;;;5070912;28;20041;-70
2022/09/25 00:34:49;;;;;;;1.55;0.70;;;9.40;99.90;;;;;;5069240;28;20049;-70
2022/09/25 00:37:15;;;;;;;2.33;0.60;;;9.40;99.90;;;;;;5053971;28;20048;-70
2022/09/25 00:39:40;;;;;;;1.02;0.70;;;9.40;99.90;;;;;;5053003;28;20037;-69
2022/09/25 00:42:06;;;;;;;0.88;0.70;;;9.30;99.90;;;;;;5053980;28;20037;-70
2022/09/25 00:44:57;;;;;;;1.75;0.60;;;9.30;99.90;;;;;;5054186;28;20037;-70
2022/09/25 00:47:31;;;;;;;0.47;0.45;;;9.30;99.90;;;;;;5036399;28;20041;-70
2022/09/25 00:50:00;;;;;;;0.65;0.60;;;9.30;99.90;;;;;;5053556;28;20058;-70
2022/09/25 00:52:26;;;;;;;0.98;0.63;;;9.20;99.90;;;;;;5037253;28;20040;-70
2022/09/25 00:55:04;;;;;;;1.05;0.68;;;9.10;99.90;;;;;;5053692;28;20045;-70
2022/09/25 00:57:34;;;;;;;0.40;0.40;;;9.10;99.90;;;;;;5053813;28;20401;-70
2022/09/25 01:00:08;;;;;;;0.70;0.57;;;9.10;99.90;;;;;;5035076;28;20041;-70
2022/09/25 01:02:38;;;;;;;0.43;0.43;;;9.10;99.90;;;;;;5037082;28;20045;-70
2022/09/25 01:05:07;;;;;;;0.43;0.43;;;9.00;99.90;;;;;;5053074;28;20068;-70
2022/09/25 01:07:36;;;;;;;1.23;0.60;;;9.10;99.90;;;;;;5060503;28;20090;-70
2022/09/25 01:10:04;;;;;;;2.03;0.70;;;9.00;99.90;;;;;;5050368;28;20046;-69
2022/09/25 01:12:30;;;;;;;1.52;0.60;;;9.00;99.90;;;;;;5050139;28;20042;-70
2022/09/25 01:14:56;;;;;;;0.50;0.50;;;9.00;99.90;;;;;;5026500;28;20056;-70
2022/09/25 01:17:32;;;;;;;0.85;0.73;;;8.90;99.90;;;;;;5053482;28;20400;-70
2022/09/25 01:20:13;;;;;;;0.45;0.40;;;8.90;99.90;;;;;;5036960;28;20045;-70
2022/09/25 01:23:03;;;;;;;2.00;0.50;;;8.80;99.90;;;;;;5051744;28;20036;-70
2022/09/25 01:25:47;;;;;;;0.40;0.40;;;8.80;99.90;;;;;;5035649;28;20033;-70
2022/09/25 01:28:24;;;;;;;1.55;0.50;;;8.70;99.90;;;;;;5069095;28;20451;-70
2022/09/25 01:30:54;;;;;;;0.70;0.60;;;8.70;99.90;;;;;;5035828;28;20451;-70
2022/09/25 01:33:26;;;;;;;1.33;0.57;;;8.70;99.90;;;;;;5069747;28;20090;-70
2022/09/25 01:36:01;;;;;;;2.77;0.80;;;8.70;99.90;;;;;;5052550;28;20041;-70
2022/09/25 01:38:48;;;;;;;1.73;0.90;;;8.60;99.90;;;;;;5052955;28;20659;-70
2022/09/25 01:41:37;;;;;;;1.27;0.60;;;8.60;99.90;;;;;;5051476;28;20048;-70
2022/09/25 01:44:17;;;;;;;0.90;0.70;;;8.60;99.90;;;;;;5032884;28;20084;-70
2022/09/25 01:46:48;;;;;;;1.23;0.77;;;8.60;99.90;;;;;;5033374;28;20544;-70
2022/09/25 01:49:25;;;;;;;3.03;1.00;;;8.60;99.90;;;;;;5052790;28;20047;-70
2022/09/25 01:51:53;;;;;;;5.63;0.95;;;8.50;99.90;;;;;;5052880;28;20049;-70
2022/09/25 01:54:51;;;;;;;1.90;1.10;;;8.50;99.90;;;;;;5051605;28;20048;-70
2022/09/25 01:57:29;;;;;;;2.70;1.10;;;8.40;99.90;;;;;;5046899;28;20145;-70
2022/09/25 02:00:09;;;;;;;1.52;0.90;;;8.40;99.90;;;;;;5051609;28;20544;-70
2022/09/25 02:02:45;;;;;;;1.17;0.40;;;8.40;99.90;;;;;;5033597;28;20041;-70
2022/09/25 02:05:21;;;;;;;0.40;0.40;;;8.50;99.90;;;;;;5068079;28;20043;-70
2022/09/25 02:07:54;;;;;;;1.42;0.60;;;8.50;99.90;;;;;;5052372;28;20579;-70
2022/09/25 02:10:35;;;;;;;0.95;0.57;;;8.40;99.90;;;;;;5052376;28;20047;-70
2022/09/25 02:13:09;;;;;;;0.90;0.65;;;8.40;99.90;;;;;;5069005;28;20489;-70
2022/09/25 02:15:41;;;;;;;1.48;0.70;;;8.40;99.90;;;;;;5051392;28;20142;-70
2022/09/25 02:21:13;;;;;;;0.93;0.52;;;8.30;99.90;;;;;;5068190;28;20083;-70
2022/09/25 02:23:51;;;;;;;0.63;0.47;;;8.30;99.90;;;;;;5050572;28;20032;-70
2022/09/25 02:26:28;;;;;;;0.30;0.30;;;8.30;99.90;;;;;;5051639;28;20049;-70
2022/09/25 02:28:55;;;;;;;0.80;0.80;;;8.30;99.90;;;;;;5050936;28;20048;-70
2022/09/25 02:31:28;;;;;;;0.77;0.60;;;8.30;99.90;;;;;;5035600;28;20051;-70
2022/09/25 02:33:55;;;;;;;2.20;0.70;;;8.20;99.90;;;;;;5034812;28;20389;-70
2022/09/25 02:36:22;;;;;;;1.35;0.70;;;8.20;99.90;;;;;;5051953;28;20041;-70
2022/09/25 02:38:50;;;;;;;0.60;0.60;;;8.20;99.90;;;;;;5051095;28;20041;-70
2022/09/25 02:41:52;;;;;;;1.38;0.50;;;8.20;99.90;;;;;;5049172;28;20029;-70
2022/09/25 02:44:26;;;;;;;1.25;0.70;;;8.20;99.90;;;;;;5050724;28;20033;-70
2022/09/25 02:47:19;;;;;;;1.83;0.70;;;8.10;99.90;;;;;;5051291;28;20439;-70
2022/09/25 02:49:53;;;;;;;1.10;0.80;;;8.10;99.90;;;;;;5051335;28;20037;-70
2022/09/25 02:52:33;;;;;;;1.70;0.82;;;8.10;99.90;;;;;;5052085;28;20077;-70
2022/09/25 02:55:10;;;;;;;1.55;0.90;;;8.10;99.90;;;;;;5051740;28;20079;-70
2022/09/25 02:57:51;;;;;;;2.08;0.88;;;8.10;99.90;;;;;;5052126;28;20077;-70
2022/09/25 03:00:18;;;;;;;1.50;0.50;;;8.10;99.90;;;;;;5037965;28;20248;-70
2022/09/25 03:02:45;;;;;;;1.25;0.45;;;8.00;99.90;;;;;;5054478;28;20041;-70
2022/09/25 03:05:13;;;;;;;3.53;0.70;;;8.10;99.90;;;;;;5050886;28;20512;-70
2022/09/25 03:10:25;;;;;;;2.58;0.80;;;8.10;99.90;;;;;;5065053;28;20045;-70
2022/09/25 03:12:50;;;;;;;1.80;0.80;;;8.10;99.90;;;;;;5035691;28;20495;-70
2022/09/25 03:15:18;;;;;;;1.30;0.73;;;8.10;99.90;;;;;;5054758;28;20090;-70
2022/09/25 03:17:45;;;;;;;2.17;0.68;;;8.10;99.90;;;;;;5053730;28;20095;-70
2022/09/25 03:20:10;;;;;;;1.20;0.80;;;8.10;99.90;;;;;;5053364;28;20037;-70
2022/09/25 03:22:36;;;;;;;1.00;0.80;;;8.00;99.90;;;;;;5053406;28;20044;-70
2022/09/25 03:25:04;;;;;;;1.10;0.70;;;8.00;99.90;;;;;;5055410;28;20072;-70
2022/09/25 03:27:29;;;;;;;0.70;0.70;;;8.00;99.90;;;;;;5054701;28;20047;-70
2022/09/25 03:29:55;;;;;;;0.90;0.80;;;8.00;99.90;;;;;;5043576;28;20041;-70
2022/09/25 03:32:21;;;;;;;1.42;0.68;;;7.90;99.90;;;;;;5043293;28;20046;-70
2022/09/25 03:34:47;;;;;;;0.60;0.55;;;7.90;99.90;;;;;;5057704;28;20431;-70
2022/09/25 03:37:12;;;;;;;0.90;0.60;;;7.90;99.90;;;;;;5067270;28;20456;-70
2022/09/25 03:39:38;;;;;;;0.60;0.60;;;7.90;99.90;;;;;;5055130;28;20120;-70
2022/09/25 03:42:04;;;;;;;1.30;0.60;;;7.90;99.90;;;;;;5055186;28;20055;-70
2022/09/25 03:44:30;;;;;;;0.68;0.50;;;7.80;99.90;;;;;;5055032;28;20489;-70
2022/09/25 03:46:56;;;;;;;1.95;0.60;;;7.80;99.90;;;;;;5054999;28;20043;-70
2022/09/25 03:49:21;;;;;;;1.25;0.80;;;7.80;99.90;;;;;;5038276;28;20090;-70
2022/09/25 03:51:47;;;;;;;1.92;0.80;;;7.80;99.90;;;;;;5055418;28;20052;-70
2022/09/25 03:54:12;;;;;;;2.30;0.60;;;7.80;99.90;;;;;;5038364;28;20037;-70
2022/09/25 03:56:38;;;;;;;3.45;0.90;;;7.70;99.90;;;;;;5053732;28;20036;-70
2022/09/25 03:59:04;;;;;;;3.67;0.80;;;7.70;99.90;;;;;;5052775;28;20443;-70
2022/09/25 04:01:30;;;;;;;2.78;0.80;;;7.60;99.90;;;;;;5053467;28;20159;-70
2022/09/25 04:03:56;;;;;;;2.58;0.60;;;7.60;99.90;;;;;;5052766;28;20029;-70
2022/09/25 04:06:24;;;;;;;4.03;1.02;;;7.60;99.90;;;;;;5054508;28;20128;-70
2022/09/25 04:08:51;;;;;;;2.10;0.85;;;7.60;99.90;;;;;;5054534;28;20556;-70
2022/09/25 04:11:19;;;;;;;1.88;0.90;;;7.60;99.90;;;;;;5044959;28;20556;-70
2022/09/25 04:13:45;;;;;;;4.13;1.00;;;7.60;99.90;;;;;;5050993;28;20099;-70
2022/09/25 04:16:12;;;;;;;3.50;0.93;;;7.60;99.90;;;;;;5052580;28;20045;-70
2022/09/25 04:18:41;;;;;;;3.20;1.15;;;7.60;99.90;;;;;;5054445;28;20036;-70
2022/09/25 04:21:08;;;;;;;1.65;0.60;;;7.70;99.90;;;;;;5032070;28;20568;-70
2022/09/25 04:23:35;;;;;;;3.13;0.70;;;7.70;99.90;;;;;;5048504;28;20501;-70
2022/09/25 04:26:01;;;;;;;2.47;0.60;;;7.70;99.90;;;;;;5074321;28;20043;-70
2022/09/25 04:28:30;;;;;;;1.67;0.40;;;7.80;99.90;;;;;;5050813;28;20033;-70
2022/09/25 04:30:56;;;;;;;0.93;0.63;;;7.80;99.90;;;;;;5053544;28;20045;-70
2022/09/25 04:36:06;;;;;;;0.88;0.80;;;7.80;99.90;;;;;;5053476;28;20049;-70
2022/09/25 04:38:31;;;;;;;3.35;1.00;;;7.80;99.90;;;;;;5036599;28;20041;-69
2022/09/25 04:40:59;;;;;;;5.32;1.35;;;7.80;99.90;;;;;;5049994;28;20047;-70
2022/09/25 04:43:26;;;;;;;4.22;1.00;;;7.80;99.90;;;;;;5036351;28;20038;-70
2022/09/25 04:45:52;;;;;;;5.22;1.20;;;7.80;99.90;;;;;;5037759;28;20429;-70
2022/09/25 04:48:18;;;;;;;4.07;0.90;;;7.80;99.90;;;;;;5053207;28;20093;-70
2022/09/25 04:50:50;;;;;;;2.53;0.80;;;7.80;99.90;;;;;;5051613;28;20041;-70
2022/09/25 04:53:16;;;;;;;3.65;0.85;;;7.70;99.90;;;;;;5037443;28;20048;-70
2022/09/25 04:55:42;;;;;;;5.22;0.70;;;7.70;99.90;;;;;;5053367;28;20399;-70
2022/09/25 04:58:09;;;;;;;2.17;0.82;;;7.70;99.90;;;;;;5049753;28;20033;-70
2022/09/25 05:00:35;;;;;;;4.25;0.90;;;7.70;99.90;;;;;;5034465;28;20037;-70
2022/09/25 05:03:02;;;;;;;2.17;1.00;;;7.70;99.90;;;;;;5052899;28;20487;-70
2022/09/25 05:05:29;;;;;;;2.95;0.90;;;7.60;99.90;;;;;;5034390;28;20455;-70
2022/09/25 05:08:00;;;;;;;2.85;0.73;;;7.60;99.90;;;;;;5041019;28;20041;-70
2022/09/25 05:10:31;;;;;;;3.85;0.90;;;7.60;99.90;;;;;;5052657;28;20411;-70
2022/09/25 05:12:58;;;;;;;1.02;0.60;;;7.50;99.90;;;;;;5031531;28;20564;-70
2022/09/25 05:15:27;;;;;;;1.50;0.68;;;7.60;99.90;;;;;;5051940;28;20057;-69
2022/09/25 05:18:01;;;;;;;3.65;0.80;;;7.60;99.90;;;;;;5050980;28;20041;-70
2022/09/25 05:20:27;;;;;;;1.70;0.80;;;7.60;99.90;;;;;;5050089;28;20087;-70
2022/09/25 05:22:55;;;;;;;2.67;0.90;;;7.60;99.90;;;;;;5051783;28;20048;-70
2022/09/25 05:25:22;;;;;;;4.60;1.40;;;7.50;99.90;;;;;;5052262;28;20112;-69
2022/09/25 05:27:49;;;;;;;2.92;1.20;;;7.50;99.90;;;;;;5052201;28;20045;-69
2022/09/25 05:30:15;;;;;;;3.00;1.00;;;7.50;99.90;;;;;;5036024;28;20392;-70
2022/09/25 05:32:48;;;;;;;2.65;1.10;;;7.50;99.90;;;;;;5050483;28;20044;-70
2022/09/25 05:35:15;;;;;;;4.22;0.90;;;7.40;99.90;;;;;;5036068;28;20044;-69
2022/09/25 05:37:40;;;;;;;3.63;0.90;;;7.40;99.90;;;;;;5050260;28;20041;-70
2022/09/25 05:40:06;;;;;;;2.10;0.77;;;7.30;99.90;;;;;;5052150;28;20042;-70
2022/09/25 05:42:33;;;;;;;2.20;0.88;;;7.30;99.90;;;;;;5049377;28;20167;-70
2022/09/25 05:44:59;;;;;;;3.65;0.90;;;7.30;99.90;;;;;;5046585;28;20611;-70
2022/09/25 05:47:24;;;;;;;3.10;0.85;;;7.40;99.90;;;;;;5043398;28;20147;-70
2022/09/25 05:49:50;;;;;;;2.80;0.80;;;7.40;99.90;;;;;;5051574;28;20043;-70
2022/09/25 05:52:15;;;;;;;1.00;0.70;;;7.40;99.90;;;;;;5049589;28;20162;-70
2022/09/25 05:54:41;;;;;;;1.80;0.70;;;7.40;99.90;;;;;;5052218;28;20048;-70
2022/09/25 05:57:07;;;;;;;1.85;0.80;;;7.40;99.90;;;;;;5051117;28;20044;-70
2022/09/25 05:59:33;;;;;;;2.40;1.02;;;7.40;99.90;;;;;;5019852;28;20041;-69
2022/09/25 06:01:59;;;;;;;2.00;1.05;;;7.40;99.90;;;;;;5030730;28;20094;-70
2022/09/25 06:04:25;;;;;;;2.83;1.20;;;7.40;99.90;;;;;;5051089;28;20068;-70
2022/09/25 06:06:51;;;;;;;2.00;1.00;;;7.40;99.90;;;;;;5052466;28;20041;-70
2022/09/25 06:09:17;;;;;;;1.33;0.90;;;7.50;99.90;;;;;;5051269;28;20643;-70
2022/09/25 06:11:46;;;;;;;1.42;0.70;;;7.50;99.90;;;;;;5043887;28;20083;-70
2022/09/25 06:14:12;;;;;;;1.00;0.50;;;7.50;99.90;;;;;;5049793;28;20089;-70
2022/09/25 06:16:38;;;;;;;1.80;0.70;;;7.60;99.90;;;;;;5051795;28;20048;-70
2022/09/25 06:19:03;;;;;;;1.73;0.88;;;7.60;99.90;;;;;;5051158;28;20045;-69
2022/09/25 06:21:29;;;;;;;1.60;0.90;;;7.60;99.90;;;;;;5051292;28;20080;-70
2022/09/25 06:23:54;;;;;;;3.03;0.90;;;7.60;99.90;;;;;;5050144;28;20444;-70
2022/09/25 06:26:20;;;;;;;3.47;1.15;;;7.60;99.90;;;;;;5048154;28;20443;-70
2022/09/25 06:28:46;;;;;;;3.05;1.33;;;7.60;99.90;;;;;;5048287;28;20036;-70
2022/09/25 06:31:11;;;;;;;2.75;1.00;;;7.60;99.90;;;;;;5031517;28;20155;-70
2022/09/25 06:33:37;;;;;;;2.78;1.40;;;7.60;99.90;;;;;;5022934;28;20056;-70
2022/09/25 06:36:04;;;;;;;3.25;1.30;;;7.60;99.90;;;;;;5035593;28;20037;-70
2022/09/25 06:38:32;;;;;;;3.83;1.30;;;7.60;99.90;;;;;;5027558;28;20509;-70
2022/09/25 06:40:58;;;;;;;4.15;1.20;;;7.70;99.90;;;;;;5039958;28;20409;-70
2022/09/25 06:43:23;;;;;;;4.25;1.10;;;7.70;99.90;;;;;;5033065;28;20032;-70
2022/09/25 06:45:50;;;;;;;5.30;1.50;;;7.70;99.90;;;;;;5047775;28;20067;-70
2022/09/25 06:48:16;;;;;;;5.78;1.55;;;7.70;99.90;;;;;;5050396;28;20096;-70
2022/09/25 06:50:47;;;;;;;6.10;1.90;;;7.70;99.90;;;;;;5032070;28;20124;-70
2022/09/25 06:53:14;;;;;;;4.95;1.80;;;7.80;99.90;;;;;;5043060;28;20047;-70
2022/09/25 06:55:40;;;;;;;7.90;2.08;;;7.80;99.90;;;;;;5046151;28;20132;-70
2022/09/25 06:58:09;;;;;;;3.70;1.73;;;7.90;99.90;;;;;;5048793;28;20404;-70
2022/09/25 07:00:35;;;;;;;8.70;2.30;;;8.00;99.90;;;;;;5034529;28;20068;-70
2022/09/25 07:05:47;;;;;;;7.25;2.05;;;8.10;99.90;;;;;;5066803;28;20040;-70
2022/09/25 07:08:17;;;;;;;6.18;2.50;;;8.20;99.90;;;;;;5034046;28;20459;-69
2022/09/25 07:10:56;;;;;;;8.23;2.42;;;8.40;99.90;;;;;;5047900;28;20059;-70
2022/09/25 07:13:24;;;;;;;6.28;2.22;;;8.50;99.90;;;;;;5022126;28;20040;-70
2022/09/25 07:16:02;;;;;;;7.07;2.28;;;8.50;99.90;;;;;;5049610;28;20405;-70
2022/09/25 07:18:28;;;;;;;6.70;2.30;;;8.60;99.90;;;;;;5045978;28;20041;-70
2022/09/25 07:21:03;;;;;;;8.68;2.17;;;8.70;99.90;;;;;;5031832;28;20051;-70
2022/09/25 07:23:30;;;;;;;11.02;2.42;;;8.80;99.90;;;;;;5049790;28;20128;-70
2022/09/25 07:25:57;;;;;;;6.65;2.10;;;8.90;99.90;;;;;;5030567;28;20037;-70
2022/09/25 07:28:23;;;;;;;10.13;2.60;;;9.00;99.90;;;;;;5030773;28;20044;-70
2022/09/25 07:30:49;;;;;;;10.63;2.50;;;9.10;99.90;;;;;;5049816;28;20037;-70
2022/09/25 07:33:15;;;;;;;9.57;2.40;;;9.20;99.90;;;;;;5049242;28;20045;-70
2022/09/25 07:35:40;;;;;;;6.65;2.08;;;9.40;99.90;;;;;;5049720;28;20547;-70
2022/09/25 07:38:06;;;;;;;6.55;2.38;;;9.40;99.90;;;;;;5047387;28;20053;-76
2022/09/25 07:40:34;;;;;;;8.35;2.35;;;9.60;99.90;;;;;;5047613;28;20393;-77
2022/09/25 07:43:06;;;;;;;7.22;1.80;;;9.80;99.90;;;;;;5050596;28;20041;-71
2022/09/25 07:45:31;;;;;;;8.63;2.70;;;10.00;99.90;;;;;;5054114;28;20032;-71
2022/09/25 07:48:02;;;;;;;10.68;2.22;;;10.10;99.90;;;;;;5053297;28;20122;-71
2022/09/25 07:50:30;;;;;;;7.53;1.88;;;10.20;99.90;;;;;;5037006;28;20099;-70
2022/09/25 07:52:56;;;;;;;5.45;1.90;;;10.30;99.90;;;;;;5052848;28;20056;-70
2022/09/25 07:55:22;;;;;;;5.40;2.00;;;10.40;99.90;;;;;;5052434;28;20040;-71
2022/09/25 07:57:49;;;;;;;10.30;1.80;;;10.50;99.90;;;;;;5037368;28;20485;-70
2022/09/25 08:00:15;;;;;;;8.55;2.33;;;10.60;99.90;;;;;;5044671;28;20045;-70
2022/09/25 08:02:41;;;;;;;11.00;1.70;;;10.70;99.90;;;;;;5036678;28;20489;-71
2022/09/25 08:05:08;;;;;;;9.20;2.40;;;10.80;99.90;;;;;;5049625;28;20063;-71
2022/09/25 08:07:33;;;;;;;8.90;2.00;;;10.90;99.90;;;;;;5051650;28;20457;-71
2022/09/25 08:09:59;;;;;;;6.43;1.92;;;11.10;99.90;;;;;;5052898;28;20120;-71
2022/09/25 08:12:25;;;;;;;8.20;1.95;;;11.20;99.90;;;;;;5052361;28;20555;-71
2022/09/25 08:14:51;;;;;;;5.47;1.50;;;11.40;99.90;;;;;;5052901;28;20060;-71
2022/09/25 08:17:18;;;;;;;6.15;1.50;;;11.50;99.90;;;;;;5051420;28;20063;-71
2022/09/25 08:19:45;;;;;;;11.35;1.75;;;11.70;99.90;;;;;;5035787;28;20071;-71
2022/09/25 08:22:11;;;;;;;11.00;1.92;;;11.90;99.90;;;;;;5054026;28;20489;-71
2022/09/25 08:24:36;;;;;;;8.23;2.35;;;12.10;99.90;;;;;;5049455;28;20501;-71
2022/09/25 08:27:03;;;;;;;8.00;1.90;;;12.30;99.90;;;;;;5052858;28;20068;-71
2022/09/25 08:29:29;;;;;;;7.15;1.90;;;12.50;99.90;;;;;;5052176;28;20040;-71
2022/09/25 08:31:56;;;;;;;9.90;1.92;;;12.70;99.90;;;;;;5053418;28;20480;-71
2022/09/25 08:34:21;;;;;;;7.22;1.40;;;12.70;99.90;;;;;;5036103;28;20052;-71
2022/09/25 08:36:51;;;;;;;9.38;1.27;;;12.80;99.90;;;;;;5051923;28;20045;-71
2022/09/25 08:39:17;;;;;;;4.53;1.30;;;12.80;99.90;;;;;;5035877;28;20496;-71
2022/09/25 08:41:54;;;;;;;6.45;1.83;;;12.90;99.90;;;;;;5051313;28;20061;-71
2022/09/25 08:44:29;;;;;;;7.72;1.30;;;12.90;99.90;;;;;;5052534;28;20451;-71
2022/09/25 08:50:10;;;;;;;7.60;1.30;;;13.10;99.90;;;;;;5062891;28;20077;-71
2022/09/25 08:52:40;;;;;;;5.90;1.60;;;13.20;99.90;;;;;;5044997;28;20393;-72
2022/09/25 08:55:14;;;;;;;6.22;1.30;;;13.30;99.90;;;;;;5047621;28;20029;-71
2022/09/25 08:57:44;;;;;;;6.53;1.30;;;13.40;99.90;;;;;;5052668;28;20444;-72
2022/09/25 09:00:19;;;;;;;4.05;1.20;;;13.40;99.90;;;;;;5051066;28;20025;-71
2022/09/25 09:02:51;;;;;;;7.93;1.70;;;13.50;99.90;;;;;;5035044;28;20083;-72
2022/09/25 09:05:29;;;;;;;4.15;1.23;;;13.70;99.90;;;;;;5035979;28;20045;-72
2022/09/25 09:08:06;;;;;;;5.35;1.10;;;13.70;99.90;;;;;;5050898;28;20036;-72
2022/09/25 09:10:34;;;;;;;6.10;1.48;;;13.90;99.90;;;;;;5034068;28;20041;-72
2022/09/25 09:13:29;;;;;;;5.05;1.20;;;14.00;99.90;;;;;;5050962;28;20092;-72
2022/09/25 09:16:06;;;;;;;7.05;1.33;;;14.10;99.90;;;;;;5052426;28;20060;-72
2022/09/25 09:18:38;;;;;;;3.92;1.02;;;14.40;99.90;;;;;;5052028;28;20114;-72
2022/09/25 09:21:09;;;;;;;3.20;1.00;;;14.50;99.90;;;;;;5047636;28;20048;-72
2022/09/25 09:24:05;;;;;;;3.17;0.95;;;14.50;99.90;;;;;;5052664;28;20486;-72
2022/09/25 09:27:08;;;;;;;7.55;1.40;;;14.40;99.90;;;;;;5011012;28;20496;-70
2022/09/25 09:29:57;;;;;;;9.52;1.40;;;14.00;99.90;;;;;;5021735;28;20032;-70
2022/09/25 09:32:39;;;;;;;7.13;1.30;;;13.70;99.90;;;;;;5044915;28;20037;-70
2022/09/25 09:35:14;;;;;;;3.25;1.00;;;13.60;99.90;;;;;;5050820;28;20116;-70
2022/09/25 09:38:18;;;;;;;4.78;1.00;;;13.40;99.90;;;;;;5027995;28;20041;-70
2022/09/25 09:41:07;;;;;;;5.00;1.02;;;13.30;99.90;;;;;;5051915;28;20044;-70
2022/09/25 09:43:38;;;;;;;5.70;0.90;;;13.10;99.90;;;;;;5052089;28;20424;-70
2022/09/25 09:46:23;;;;;;;6.88;1.08;;;13.00;99.90;;;;;;5052464;28;20091;-70
2022/09/25 09:49:03;;;;;;;2.65;0.80;;;13.00;99.90;;;;;;5051527;28;20090;-70
2022/09/25 09:51:44;;;;;;;8.02;1.23;;;13.00;99.90;;;;;;5050693;28;20041;-70
2022/09/25 09:54:16;;;;;;;4.80;1.30;;;13.00;99.90;;;;;;5033508;28;20045;-70
2022/09/25 09:56:44;;;;;;;;;;;12.90;99.90;;;;;;5032714;28;20375;-70
2022/09/25 09:59:21;;;;;;;4.57;1.00;;;13.00;99.90;;;;;;5057468;28;19935;-70
2022/09/25 10:01:58;;;;;;;2.25;0.80;;;12.90;99.90;;;;;;5048748;28;20485;-70
2022/09/25 10:04:30;;;;;;;2.15;0.85;;;13.00;99.90;;;;;;5050438;28;20543;-70
2022/09/25 10:07:08;;;;;;;4.45;0.80;;;13.00;99.90;;;;;;5052410;28;20512;-70
2022/09/25 10:09:36;;;;;;;4.47;0.80;;;13.00;99.90;;;;;;5033764;28;20072;-70
2022/09/25 10:12:29;;;;;;;3.83;1.20;;;13.00;99.90;;;;;;5035077;28;20040;-70
2022/09/25 10:14:57;;;;;;;4.32;0.80;;;13.00;99.90;;;;;;5064277;28;20448;-70
2022/09/25 10:17:23;;;;;;;4.38;0.93;;;13.10;99.90;;;;;;5051472;28;20437;-70
2022/09/25 10:20:13;;;;;;;4.95;1.00;;;13.10;99.90;;;;;;5051031;28;20063;-70
2022/09/25 10:22:43;;;;;;;4.60;1.08;;;13.20;99.90;;;;;;5048858;28;20436;-70
2022/09/25 10:25:09;;;;;;;2.88;0.80;;;13.20;99.90;;;;;;5050897;28;20044;-70
2022/09/25 10:27:40;;;;;;;4.10;0.90;;;13.20;99.90;;;;;;5033932;28;20032;-70
2022/09/25 10:30:08;;;;;;;6.43;1.10;;;13.30;99.90;;;;;;5050033;28;20044;-70
2022/09/25 10:33:00;;;;;;;5.18;1.10;;;13.30;99.90;;;;;;5050026;28;20047;-70
2022/09/25 10:35:37;;;;;;;2.28;1.00;;;13.30;99.90;;;;;;5044361;28;20040;-70
2022/09/25 10:38:05;;;;;;;4.63;0.90;;;13.20;99.90;;;;;;5048031;28;20409;-70
2022/09/25 10:40:34;;;;;;;4.50;0.93;;;13.30;99.90;;;;;;5048959;28;20041;-70
2022/09/25 10:43:15;;;;;;;4.13;0.90;;;13.30;99.90;;;;;;5050169;28;20456;-70
2022/09/25 10:45:41;;;;;;;2.10;0.70;;;13.30;99.90;;;;;;5045332;28;20082;-70
2022/09/25 10:51:20;;;;;;;2.97;0.87;;;13.40;99.90;;;;;;5048438;28;20076;-70
2022/09/25 10:53:51;;;;;;;3.67;1.00;;;13.40;99.90;;;;;;5049409;28;20037;-70
2022/09/25 10:56:21;;;;;;;1.85;0.80;;;13.50;99.90;;;;;;5050281;28;20091;-70
2022/09/25 10:58:53;;;;;;;4.32;1.00;;;13.50;99.90;;;;;;5033592;28;20037;-70
2022/09/25 11:01:20;;;;;;;3.80;0.88;;;13.50;99.90;;;;;;5040726;28;20041;-70
2022/09/25 11:03:54;;;;;;;4.05;1.00;;;13.60;99.90;;;;;;5033817;28;20045;-70
2022/09/25 11:06:25;;;;;;;2.97;1.00;;;13.60;99.90;;;;;;5033617;28;20123;-70
2022/09/25 11:09:03;;;;;;;5.28;1.10;;;13.70;99.90;;;;;;5050378;28;20500;-70
2022/09/25 11:11:30;;;;;;;3.97;1.00;;;13.70;99.90;;;;;;5033906;28;20045;-71
2022/09/25 11:13:58;;;;;;;3.50;1.20;;;13.80;99.90;;;;;;5050200;28;20032;-69
2022/09/25 11:16:48;;;;;;;3.55;1.00;;;13.80;99.90;;;;;;5029442;28;20489;-71
2022/09/25 11:19:27;;;;;;;2.75;0.80;;;14.00;99.90;;;;;;5017725;28;20033;-70
2022/09/25 11:21:55;;;;;;;4.20;1.13;;;14.00;99.90;;;;;;5050631;28;20048;-71
2022/09/25 11:24:42;;;;;;;6.18;1.25;;;14.00;99.90;;;;;;5068709;28;20049;-71
2022/09/25 11:27:29;;;;;;;4.28;0.90;;;14.10;99.90;;;;;;5067953;28;20068;-71
2022/09/25 11:30:04;;;;;;;5.20;1.00;;;14.20;99.90;;;;;;5038067;28;20028;-71
2022/09/25 11:32:44;;;;;;;4.43;1.40;;;14.10;99.90;;;;;;5052460;28;20036;-71
2022/09/25 11:35:47;;;;;;;5.45;1.10;;;14.10;99.90;;;;;;5028940;28;20072;-71
2022/09/25 11:42:09;;;;;;;5.63;1.00;;;14.20;99.90;;;;;;5051036;28;20049;-71
2022/09/25 11:44:34;;;;;;;4.10;1.05;;;14.20;99.90;;;;;;5021515;28;20041;-71
2022/09/25 11:47:05;;;;;;;3.90;0.98;;;14.20;99.90;;;;;;5033167;28;20128;-71
2022/09/25 11:49:35;;;;;;;4.70;1.43;;;14.20;99.90;;;;;;5052142;28;20079;-71
2022/09/25 11:52:25;;;;;;;4.55;1.20;;;14.10;99.90;;;;;;5053896;28;20497;-71
2022/09/25 11:55:06;;;;;;;6.72;1.20;;;14.10;99.90;;;;;;5061853;28;20048;-71
2022/09/25 11:57:54;;;;;;;6.32;1.25;;;14.10;99.90;;;;;;5038225;28;20512;-71
2022/09/25 12:00:33;;;;;;;3.88;1.10;;;14.10;99.90;;;;;;5021677;28;20544;-71
2022/09/25 12:03:06;;;;;;;4.63;1.73;;;14.10;99.90;;;;;;5068821;28;20037;-71
2022/09/25 12:05:34;;;;;;;5.72;1.08;;;14.10;99.90;;;;;;5071654;28;20404;-71
2022/09/25 12:08:22;;;;;;;4.10;1.15;;;14.10;99.90;;;;;;5025634;28;20041;-71
2022/09/25 12:11:04;;;;;;;3.00;0.82;;;14.10;99.90;;;;;;5047444;28;20229;-71
2022/09/25 12:13:53;;;;;;;2.88;1.00;;;14.20;99.90;;;;;;5035388;28;20103;-71
2022/09/25 12:16:32;;;;;;;5.38;1.02;;;14.10;99.90;;;;;;5036437;28;20088;-71
2022/09/25 12:18:57;;;;;;;4.30;0.93;;;14.10;99.90;;;;;;5053711;28;20037;-71
2022/09/25 12:21:51;;;;;;;3.97;0.93;;;14.00;99.90;;;;;;5049147;28;20048;-71
2022/09/25 12:24:31;;;;;;;3.35;0.82;;;14.00;99.90;;;;;;5026202;28;20096;-71
2022/09/25 12:27:10;;;;;;;4.43;1.17;;;14.00;99.90;;;;;;5052719;28;20052;-71
2022/09/25 12:29:43;;;;;;;4.50;0.95;;;13.90;99.90;;;;;;5052264;28;20037;-71
2022/09/25 12:32:42;;;;;;;3.70;0.88;;;13.80;99.90;;;;;;5070196;28;20063;-71
2022/09/25 12:35:14;;;;;;;3.35;1.10;;;13.80;99.90;;;;;;5051736;28;20044;-71
2022/09/25 12:37:54;;;;;;;3.10;0.68;;;13.80;99.90;;;;;;5054080;28;20099;-71
2022/09/25 12:40:42;;;;;;;2.00;0.73;;;13.90;99.90;;;;;;5048735;28;20676;-71
2022/09/25 12:43:14;;;;;;;3.58;1.00;;;13.90;99.90;;;;;;5023171;28;20063;-71
2022/09/25 12:46:05;;;;;;;3.63;0.90;;;14.00;99.90;;;;;;5044148;28;20037;-71
2022/09/25 12:48:53;;;;;;;2.47;0.53;;;14.00;99.90;;;;;;5050647;28;20505;-71
2022/09/25 12:51:39;;;;;;;3.80;0.93;;;14.00;99.90;;;;;;5052858;28;20041;-71
2022/09/25 12:54:22;;;;;;;2.15;0.75;;;14.10;99.90;;;;;;5052311;28;20515;-71
2022/09/25 12:56:54;;;;;;;;;;;14.20;99.90;;;;;;5045596;28;20068;-72
2022/09/25 12:59:32;;;;;;;4.05;0.70;;;14.30;99.90;;;;;;5035728;28;20002;-72
2022/09/25 13:02:10;;;;;;;2.35;0.80;;;14.40;99.90;;;;;;5051188;28;20073;-72
2022/09/25 13:05:00;;;;;;;4.00;0.70;;;14.60;99.90;;;;;;5053084;28;20063;-72
2022/09/25 13:07:48;;;;;;;2.53;0.82;;;14.70;99.90;;;;;;5036624;28;20542;-72
2022/09/25 13:10:35;;;;;;;3.40;0.70;;;14.80;99.90;;;;;;5051024;28;20051;-73
2022/09/25 13:13:04;;;;;;;5.55;1.20;;;14.90;99.90;;;;;;5052383;28;20037;-71
2022/09/25 13:15:34;;;;;;;3.40;0.77;;;14.90;99.90;;;;;;5044970;28;20102;-74
2022/09/25 13:18:00;;;;;;;3.97;0.70;;;14.80;99.90;;;;;;5051610;28;20052;-75
2022/09/25 13:20:25;;;;;;;4.10;0.93;;;14.70;99.90;;;;;;5051885;28;20564;-72
2022/09/25 13:23:02;;;;;;;3.45;0.90;;;14.60;99.90;;;;;;5052942;28;20170;-72
2022/09/25 13:25:30;;;;;;;3.25;0.90;;;14.60;99.90;;;;;;5036459;28;20025;-72
2022/09/25 13:28:04;;;;;;;3.38;0.80;;;14.60;99.90;;;;;;5053496;28;20045;-73
2022/09/25 13:30:31;;;;;;;4.70;0.90;;;14.60;99.90;;;;;;5051344;28;20091;-73
2022/09/25 13:33:00;;;;;;;4.72;0.80;;;14.80;99.90;;;;;;5036361;28;20551;-74
2022/09/25 13:35:26;;;;;;;2.45;0.63;;;14.80;99.90;;;;;;5052337;28;20044;-72
2022/09/25 13:38:08;;;;;;;4.57;1.23;;;14.80;99.90;;;;;;5051972;28;20393;-72